sensor_id;sensor_type;location;lat;lon;timestamp;P1;durP1;ratioP1;P2;durP2;ratioP2
58222;SDS011;44020;50.890;15.796;2022-12-29T00:01:03;1.80;;;1.10;;
58222;SDS011;44020;50.890;15.796;2022-12-29T00:03:30;2.10;;;1.20;;
58222;SDS011;44020;50.890;15.796;2022-12-29T00:05:57;3.40;;;1.50;;
58222;SDS011;44020;50.890;15.796;2022-12-29T00:08:25;2.30;;;1.00;;
58222;SDS011;44020;50.890;15.796;2022-12-29T00:11:09;2.60;;;1.10;;
58222;SDS011;44020;50.890;15.796;2022-12-29T00:16:27;3.20;;;1.30;;
58222;SDS011;44020;50.890;15.796;2022-12-29T00:18:56;2.30;;;1.30;;
58222;SDS011;44020;50.890;15.796;2022-12-29T00:21:25;2.20;;;0.90;;
58222;SDS011;44020;50.890;15.796;2022-12-29T00:24:19;5.10;;;2.40;;
58222;SDS011;44020;50.890;15.796;2022-12-29T00:29:49;8.50;;;3.30;;
58222;SDS011;44020;50.890;15.796;2022-12-29T00:32:36;5.70;;;2.60;;
58222;SDS011;44020;50.890;15.796;2022-12-29T00:35:25;19.40;;;6.60;;
58222;SDS011;44020;50.890;15.796;2022-12-29T00:38:07;34.40;;;10.60;;
58222;SDS011;44020;50.890;15.796;2022-12-29T00:40:54;70.70;;;24.30;;
58222;SDS011;44020;50.890;15.796;2022-12-29T00:43:40;56.50;;;21.00;;
58222;SDS011;44020;50.890;15.796;2022-12-29T00:46:26;21.80;;;9.50;;
58222;SDS011;44020;50.890;15.796;2022-12-29T00:48:54;13.20;;;6.60;;
58222;SDS011;44020;50.890;15.796;2022-12-29T00:51:40;7.60;;;3.20;;
58222;SDS011;44020;50.890;15.796;2022-12-29T00:54:07;3.40;;;1.90;;
58222;SDS011;44020;50.890;15.796;2022-12-29T00:56:34;3.40;;;1.60;;
58222;SDS011;44020;50.890;15.796;2022-12-29T00:59:06;3.90;;;1.60;;
58222;SDS011;44020;50.890;15.796;2022-12-29T01:01:35;2.60;;;1.40;;
58222;SDS011;44020;50.890;15.796;2022-12-29T01:04:04;2.90;;;1.80;;
58222;SDS011;44020;50.890;15.796;2022-12-29T01:06:32;3.20;;;1.60;;
58222;SDS011;44020;50.890;15.796;2022-12-29T01:09:00;3.90;;;2.20;;
58222;SDS011;44020;50.890;15.796;2022-12-29T01:11:46;5.40;;;2.10;;
58222;SDS011;44020;50.890;15.796;2022-12-29T01:14:14;4.10;;;1.90;;
58222;SDS011;44020;50.890;15.796;2022-12-29T01:16:42;2.60;;;1.40;;
58222;SDS011;44020;50.890;15.796;2022-12-29T01:19:09;5.00;;;1.80;;
58222;SDS011;44020;50.890;15.796;2022-12-29T01:21:36;3.40;;;1.80;;
58222;SDS011;44020;50.890;15.796;2022-12-29T01:24:04;4.80;;;2.30;;
58222;SDS011;44020;50.890;15.796;2022-12-29T01:26:32;2.70;;;1.60;;
58222;SDS011;44020;50.890;15.796;2022-12-29T01:29:00;2.00;;;1.10;;
58222;SDS011;44020;50.890;15.796;2022-12-29T01:31:27;3.50;;;1.40;;
58222;SDS011;44020;50.890;15.796;2022-12-29T01:33:55;3.20;;;1.30;;
58222;SDS011;44020;50.890;15.796;2022-12-29T01:36:23;3.60;;;1.60;;
58222;SDS011;44020;50.890;15.796;2022-12-29T01:38:52;3.00;;;1.20;;
58222;SDS011;44020;50.890;15.796;2022-12-29T01:41:19;3.80;;;1.60;;
58222;SDS011;44020;50.890;15.796;2022-12-29T01:49:12;5.80;;;2.30;;
58222;SDS011;44020;50.890;15.796;2022-12-29T01:54:18;5.60;;;1.80;;
58222;SDS011;44020;50.890;15.796;2022-12-29T01:56:52;5.40;;;2.10;;
58222;SDS011;44020;50.890;15.796;2022-12-29T01:59:23;5.10;;;2.20;;
58222;SDS011;44020;50.890;15.796;2022-12-29T02:01:58;5.70;;;1.50;;
58222;SDS011;44020;50.890;15.796;2022-12-29T02:04:27;3.60;;;1.30;;
58222;SDS011;44020;50.890;15.796;2022-12-29T02:07:07;3.50;;;1.20;;
58222;SDS011;44020;50.890;15.796;2022-12-29T02:09:42;4.40;;;1.50;;
58222;SDS011;44020;50.890;15.796;2022-12-29T02:12:10;4.70;;;1.60;;
58222;SDS011;44020;50.890;15.796;2022-12-29T02:14:38;3.50;;;1.30;;
58222;SDS011;44020;50.890;15.796;2022-12-29T02:35:54;2.30;;;1.10;;
58222;SDS011;44020;50.890;15.796;2022-12-29T02:38:58;1.80;;;1.00;;
58222;SDS011;44020;50.890;15.796;2022-12-29T02:41:33;2.20;;;1.00;;
58222;SDS011;44020;50.890;15.796;2022-12-29T02:44:25;2.90;;;1.20;;
58222;SDS011;44020;50.890;15.796;2022-12-29T02:47:11;2.90;;;1.10;;
58222;SDS011;44020;50.890;15.796;2022-12-29T02:49:52;1.50;;;0.70;;
58222;SDS011;44020;50.890;15.796;2022-12-29T02:52:32;3.90;;;1.10;;
58222;SDS011;44020;50.890;15.796;2022-12-29T02:55:04;1.80;;;0.90;;
58222;SDS011;44020;50.890;15.796;2022-12-29T02:57:34;2.40;;;1.30;;
58222;SDS011;44020;50.890;15.796;2022-12-29T03:00:06;3.30;;;1.40;;
58222;SDS011;44020;50.890;15.796;2022-12-29T03:08:28;1.60;;;1.10;;
58222;SDS011;44020;50.890;15.796;2022-12-29T03:11:26;2.60;;;1.10;;
58222;SDS011;44020;50.890;15.796;2022-12-29T03:14:32;2.80;;;1.20;;
58222;SDS011;44020;50.890;15.796;2022-12-29T03:17:28;2.60;;;1.10;;
58222;SDS011;44020;50.890;15.796;2022-12-29T03:20:06;3.10;;;1.30;;
58222;SDS011;44020;50.890;15.796;2022-12-29T03:22:38;2.70;;;1.40;;
58222;SDS011;44020;50.890;15.796;2022-12-29T03:25:10;3.70;;;1.30;;
58222;SDS011;44020;50.890;15.796;2022-12-29T03:27:53;2.50;;;1.40;;
58222;SDS011;44020;50.890;15.796;2022-12-29T03:30:26;2.60;;;1.40;;
58222;SDS011;44020;50.890;15.796;2022-12-29T03:32:58;2.70;;;1.50;;
58222;SDS011;44020;50.890;15.796;2022-12-29T03:35:29;3.10;;;1.30;;
58222;SDS011;44020;50.890;15.796;2022-12-29T03:40:58;2.90;;;1.50;;
58222;SDS011;44020;50.890;15.796;2022-12-29T03:43:27;3.50;;;1.50;;
58222;SDS011;44020;50.890;15.796;2022-12-29T03:45:56;3.60;;;1.70;;
58222;SDS011;44020;50.890;15.796;2022-12-29T03:48:23;2.60;;;1.40;;
58222;SDS011;44020;50.890;15.796;2022-12-29T03:50:51;3.80;;;1.80;;
58222;SDS011;44020;50.890;15.796;2022-12-29T03:53:18;4.00;;;1.40;;
58222;SDS011;44020;50.890;15.796;2022-12-29T03:55:45;2.50;;;1.40;;
58222;SDS011;44020;50.890;15.796;2022-12-29T03:58:13;2.50;;;1.80;;
58222;SDS011;44020;50.890;15.796;2022-12-29T04:00:40;3.10;;;1.60;;
58222;SDS011;44020;50.890;15.796;2022-12-29T04:03:07;2.60;;;1.50;;
58222;SDS011;44020;50.890;15.796;2022-12-29T04:05:35;3.10;;;1.60;;
58222;SDS011;44020;50.890;15.796;2022-12-29T04:08:02;3.20;;;1.50;;
58222;SDS011;44020;50.890;15.796;2022-12-29T04:10:29;2.40;;;1.50;;
58222;SDS011;44020;50.890;15.796;2022-12-29T04:12:56;5.10;;;1.80;;
58222;SDS011;44020;50.890;15.796;2022-12-29T04:15:24;3.90;;;1.80;;
58222;SDS011;44020;50.890;15.796;2022-12-29T04:17:53;2.50;;;1.70;;
58222;SDS011;44020;50.890;15.796;2022-12-29T04:20:20;3.40;;;1.40;;
58222;SDS011;44020;50.890;15.796;2022-12-29T04:23:06;3.10;;;1.70;;
58222;SDS011;44020;50.890;15.796;2022-12-29T04:25:34;3.90;;;2.00;;
58222;SDS011;44020;50.890;15.796;2022-12-29T04:28:01;3.50;;;1.80;;
58222;SDS011;44020;50.890;15.796;2022-12-29T04:30:29;3.20;;;1.80;;
58222;SDS011;44020;50.890;15.796;2022-12-29T04:32:56;4.10;;;1.80;;
58222;SDS011;44020;50.890;15.796;2022-12-29T04:35:23;3.20;;;1.80;;
58222;SDS011;44020;50.890;15.796;2022-12-29T04:37:51;3.20;;;1.60;;
58222;SDS011;44020;50.890;15.796;2022-12-29T04:40:18;3.20;;;1.10;;
58222;SDS011;44020;50.890;15.796;2022-12-29T04:42:45;3.80;;;1.40;;
58222;SDS011;44020;50.890;15.796;2022-12-29T04:45:12;2.30;;;1.40;;
58222;SDS011;44020;50.890;15.796;2022-12-29T04:47:40;3.20;;;1.40;;
58222;SDS011;44020;50.890;15.796;2022-12-29T04:50:07;3.80;;;1.40;;
58222;SDS011;44020;50.890;15.796;2022-12-29T04:52:35;2.70;;;1.30;;
58222;SDS011;44020;50.890;15.796;2022-12-29T04:55:03;2.70;;;1.60;;
58222;SDS011;44020;50.890;15.796;2022-12-29T04:57:31;2.90;;;1.60;;
58222;SDS011;44020;50.890;15.796;2022-12-29T04:59:58;2.90;;;1.20;;
58222;SDS011;44020;50.890;15.796;2022-12-29T05:02:26;2.60;;;1.00;;
58222;SDS011;44020;50.890;15.796;2022-12-29T05:04:53;3.10;;;1.40;;
58222;SDS011;44020;50.890;15.796;2022-12-29T05:07:20;2.30;;;1.30;;
58222;SDS011;44020;50.890;15.796;2022-12-29T05:09:48;2.70;;;1.50;;
58222;SDS011;44020;50.890;15.796;2022-12-29T05:12:15;1.90;;;1.20;;
58222;SDS011;44020;50.890;15.796;2022-12-29T05:14:43;2.60;;;1.40;;
58222;SDS011;44020;50.890;15.796;2022-12-29T05:17:10;3.20;;;1.20;;
58222;SDS011;44020;50.890;15.796;2022-12-29T05:19:37;3.10;;;1.20;;
58222;SDS011;44020;50.890;15.796;2022-12-29T05:22:05;2.30;;;1.20;;
58222;SDS011;44020;50.890;15.796;2022-12-29T05:24:32;3.10;;;1.50;;
58222;SDS011;44020;50.890;15.796;2022-12-29T05:26:59;1.70;;;1.00;;
58222;SDS011;44020;50.890;15.796;2022-12-29T05:29:27;3.00;;;1.10;;
58222;SDS011;44020;50.890;15.796;2022-12-29T05:31:54;2.50;;;1.40;;
58222;SDS011;44020;50.890;15.796;2022-12-29T05:34:21;3.20;;;1.60;;
58222;SDS011;44020;50.890;15.796;2022-12-29T05:36:48;2.20;;;1.30;;
58222;SDS011;44020;50.890;15.796;2022-12-29T05:39:16;3.90;;;1.20;;
58222;SDS011;44020;50.890;15.796;2022-12-29T05:41:43;1.90;;;1.10;;
58222;SDS011;44020;50.890;15.796;2022-12-29T05:44:11;1.80;;;1.00;;
58222;SDS011;44020;50.890;15.796;2022-12-29T05:46:39;2.20;;;1.10;;
58222;SDS011;44020;50.890;15.796;2022-12-29T05:49:09;1.80;;;1.10;;
58222;SDS011;44020;50.890;15.796;2022-12-29T05:51:37;1.90;;;1.10;;
58222;SDS011;44020;50.890;15.796;2022-12-29T05:54:04;2.90;;;1.50;;
58222;SDS011;44020;50.890;15.796;2022-12-29T05:56:31;2.60;;;1.60;;
58222;SDS011;44020;50.890;15.796;2022-12-29T05:58:59;3.70;;;2.10;;
58222;SDS011;44020;50.890;15.796;2022-12-29T06:01:26;5.40;;;1.50;;
58222;SDS011;44020;50.890;15.796;2022-12-29T06:03:54;3.60;;;1.50;;
58222;SDS011;44020;50.890;15.796;2022-12-29T06:06:21;3.70;;;1.50;;
58222;SDS011;44020;50.890;15.796;2022-12-29T06:08:48;2.90;;;1.30;;
58222;SDS011;44020;50.890;15.796;2022-12-29T06:11:16;3.60;;;2.20;;
58222;SDS011;44020;50.890;15.796;2022-12-29T06:13:43;2.90;;;1.40;;
58222;SDS011;44020;50.890;15.796;2022-12-29T06:16:10;3.70;;;1.50;;
58222;SDS011;44020;50.890;15.796;2022-12-29T06:18:38;4.00;;;1.70;;
58222;SDS011;44020;50.890;15.796;2022-12-29T06:21:06;3.20;;;1.30;;
58222;SDS011;44020;50.890;15.796;2022-12-29T06:23:33;4.60;;;1.50;;
58222;SDS011;44020;50.890;15.796;2022-12-29T06:26:00;4.80;;;1.60;;
58222;SDS011;44020;50.890;15.796;2022-12-29T06:28:28;3.20;;;1.30;;
58222;SDS011;44020;50.890;15.796;2022-12-29T06:30:55;2.00;;;1.30;;
58222;SDS011;44020;50.890;15.796;2022-12-29T06:33:24;2.80;;;1.40;;
58222;SDS011;44020;50.890;15.796;2022-12-29T06:35:51;1.80;;;1.00;;
58222;SDS011;44020;50.890;15.796;2022-12-29T06:38:19;4.00;;;1.30;;
58222;SDS011;44020;50.890;15.796;2022-12-29T06:40:46;6.40;;;1.50;;
58222;SDS011;44020;50.890;15.796;2022-12-29T06:43:14;3.30;;;1.30;;
58222;SDS011;44020;50.890;15.796;2022-12-29T06:45:41;4.00;;;1.30;;
58222;SDS011;44020;50.890;15.796;2022-12-29T06:48:09;3.50;;;1.40;;
58222;SDS011;44020;50.890;15.796;2022-12-29T06:50:36;3.80;;;1.70;;
58222;SDS011;44020;50.890;15.796;2022-12-29T06:53:05;2.90;;;1.40;;
58222;SDS011;44020;50.890;15.796;2022-12-29T06:55:33;2.60;;;1.60;;
58222;SDS011;44020;50.890;15.796;2022-12-29T06:58:00;3.60;;;1.50;;
58222;SDS011;44020;50.890;15.796;2022-12-29T07:00:28;3.60;;;1.10;;
58222;SDS011;44020;50.890;15.796;2022-12-29T07:02:55;3.30;;;1.40;;
58222;SDS011;44020;50.890;15.796;2022-12-29T07:05:25;2.00;;;1.20;;
58222;SDS011;44020;50.890;15.796;2022-12-29T07:07:58;2.10;;;1.10;;
58222;SDS011;44020;50.890;15.796;2022-12-29T07:10:26;2.00;;;1.20;;
58222;SDS011;44020;50.890;15.796;2022-12-29T07:12:54;4.20;;;1.10;;
58222;SDS011;44020;50.890;15.796;2022-12-29T07:15:21;2.50;;;1.10;;
58222;SDS011;44020;50.890;15.796;2022-12-29T07:17:49;1.90;;;1.20;;
58222;SDS011;44020;50.890;15.796;2022-12-29T07:20:16;1.80;;;1.00;;
58222;SDS011;44020;50.890;15.796;2022-12-29T07:22:43;1.80;;;0.90;;
58222;SDS011;44020;50.890;15.796;2022-12-29T07:25:10;3.30;;;1.10;;
58222;SDS011;44020;50.890;15.796;2022-12-29T07:27:38;1.50;;;0.80;;
58222;SDS011;44020;50.890;15.796;2022-12-29T07:30:05;5.80;;;1.70;;
58222;SDS011;44020;50.890;15.796;2022-12-29T07:32:33;2.80;;;1.20;;
58222;SDS011;44020;50.890;15.796;2022-12-29T07:35:01;3.30;;;1.30;;
58222;SDS011;44020;50.890;15.796;2022-12-29T07:37:28;5.10;;;1.40;;
58222;SDS011;44020;50.890;15.796;2022-12-29T07:39:55;2.80;;;1.20;;
58222;SDS011;44020;50.890;15.796;2022-12-29T07:42:23;3.80;;;1.00;;
58222;SDS011;44020;50.890;15.796;2022-12-29T07:44:50;2.50;;;1.10;;
58222;SDS011;44020;50.890;15.796;2022-12-29T07:47:17;5.30;;;1.20;;
58222;SDS011;44020;50.890;15.796;2022-12-29T07:49:44;4.90;;;2.10;;
58222;SDS011;44020;50.890;15.796;2022-12-29T07:52:12;3.90;;;1.50;;
58222;SDS011;44020;50.890;15.796;2022-12-29T07:54:39;4.70;;;1.20;;
58222;SDS011;44020;50.890;15.796;2022-12-29T07:57:07;1.10;;;0.80;;
58222;SDS011;44020;50.890;15.796;2022-12-29T07:59:34;3.60;;;1.30;;
58222;SDS011;44020;50.890;15.796;2022-12-29T08:02:01;1.90;;;1.00;;
58222;SDS011;44020;50.890;15.796;2022-12-29T08:04:29;3.20;;;1.40;;
58222;SDS011;44020;50.890;15.796;2022-12-29T08:06:56;2.20;;;1.30;;
58222;SDS011;44020;50.890;15.796;2022-12-29T08:09:24;1.30;;;0.90;;
58222;SDS011;44020;50.890;15.796;2022-12-29T08:11:51;2.50;;;1.00;;
58222;SDS011;44020;50.890;15.796;2022-12-29T08:14:20;3.60;;;1.10;;
58222;SDS011;44020;50.890;15.796;2022-12-29T08:16:47;2.30;;;1.00;;
58222;SDS011;44020;50.890;15.796;2022-12-29T08:19:16;2.00;;;1.00;;
58222;SDS011;44020;50.890;15.796;2022-12-29T08:21:43;2.90;;;1.20;;
58222;SDS011;44020;50.890;15.796;2022-12-29T08:24:11;4.30;;;1.60;;
58222;SDS011;44020;50.890;15.796;2022-12-29T08:26:38;3.30;;;1.40;;
58222;SDS011;44020;50.890;15.796;2022-12-29T08:29:06;3.90;;;1.50;;
58222;SDS011;44020;50.890;15.796;2022-12-29T08:31:34;4.10;;;1.50;;
58222;SDS011;44020;50.890;15.796;2022-12-29T08:34:01;2.20;;;1.20;;
58222;SDS011;44020;50.890;15.796;2022-12-29T08:36:30;4.60;;;1.40;;
58222;SDS011;44020;50.890;15.796;2022-12-29T08:38:58;1.70;;;1.10;;
58222;SDS011;44020;50.890;15.796;2022-12-29T08:41:25;4.60;;;1.10;;
58222;SDS011;44020;50.890;15.796;2022-12-29T08:43:53;2.20;;;1.10;;
58222;SDS011;44020;50.890;15.796;2022-12-29T08:46:20;1.80;;;1.10;;
58222;SDS011;44020;50.890;15.796;2022-12-29T08:48:47;2.60;;;1.40;;
58222;SDS011;44020;50.890;15.796;2022-12-29T08:51:15;2.20;;;1.00;;
58222;SDS011;44020;50.890;15.796;2022-12-29T08:53:43;2.00;;;1.20;;
58222;SDS011;44020;50.890;15.796;2022-12-29T08:56:11;2.40;;;1.40;;
58222;SDS011;44020;50.890;15.796;2022-12-29T08:58:38;3.20;;;1.00;;
58222;SDS011;44020;50.890;15.796;2022-12-29T09:01:06;3.30;;;1.20;;
58222;SDS011;44020;50.890;15.796;2022-12-29T09:03:33;2.90;;;1.10;;
58222;SDS011;44020;50.890;15.796;2022-12-29T09:06:00;2.90;;;1.10;;
58222;SDS011;44020;50.890;15.796;2022-12-29T09:08:28;1.60;;;1.10;;
58222;SDS011;44020;50.890;15.796;2022-12-29T09:10:55;1.30;;;0.90;;
58222;SDS011;44020;50.890;15.796;2022-12-29T09:13:31;3.40;;;1.40;;
58222;SDS011;44020;50.890;15.796;2022-12-29T09:15:58;5.40;;;1.20;;
58222;SDS011;44020;50.890;15.796;2022-12-29T09:18:26;3.60;;;1.20;;
58222;SDS011;44020;50.890;15.796;2022-12-29T09:20:57;2.90;;;1.30;;
58222;SDS011;44020;50.890;15.796;2022-12-29T09:23:25;4.50;;;1.10;;
58222;SDS011;44020;50.890;15.796;2022-12-29T09:25:53;2.80;;;0.90;;
58222;SDS011;44020;50.890;15.796;2022-12-29T09:28:21;2.30;;;1.00;;
58222;SDS011;44020;50.890;15.796;2022-12-29T09:30:49;2.40;;;0.90;;
58222;SDS011;44020;50.890;15.796;2022-12-29T09:33:17;2.20;;;1.00;;
58222;SDS011;44020;50.890;15.796;2022-12-29T09:35:45;3.70;;;1.60;;
58222;SDS011;44020;50.890;15.796;2022-12-29T09:38:18;8.80;;;6.20;;
58222;SDS011;44020;50.890;15.796;2022-12-29T09:40:51;4.20;;;2.60;;
58222;SDS011;44020;50.890;15.796;2022-12-29T09:49:03;4.60;;;2.20;;
58222;SDS011;44020;50.890;15.796;2022-12-29T09:51:48;9.20;;;4.80;;
58222;SDS011;44020;50.890;15.796;2022-12-29T09:56:58;3.30;;;2.20;;
58222;SDS011;44020;50.890;15.796;2022-12-29T09:59:27;2.40;;;1.30;;
58222;SDS011;44020;50.890;15.796;2022-12-29T10:04:47;2.70;;;2.10;;
58222;SDS011;44020;50.890;15.796;2022-12-29T10:15:49;1.80;;;1.10;;
58222;SDS011;44020;50.890;15.796;2022-12-29T10:18:37;2.40;;;1.00;;
58222;SDS011;44020;50.890;15.796;2022-12-29T10:24:23;3.40;;;1.00;;
58222;SDS011;44020;50.890;15.796;2022-12-29T10:26:52;3.30;;;1.30;;
58222;SDS011;44020;50.890;15.796;2022-12-29T10:29:24;3.00;;;1.50;;
58222;SDS011;44020;50.890;15.796;2022-12-29T10:32:03;5.90;;;1.80;;
58222;SDS011;44020;50.890;15.796;2022-12-29T10:34:54;4.50;;;2.00;;
58222;SDS011;44020;50.890;15.796;2022-12-29T10:37:40;3.40;;;1.60;;
58222;SDS011;44020;50.890;15.796;2022-12-29T10:40:18;6.40;;;3.00;;
58222;SDS011;44020;50.890;15.796;2022-12-29T10:42:53;3.80;;;1.70;;
58222;SDS011;44020;50.890;15.796;2022-12-29T10:45:22;3.50;;;1.30;;
58222;SDS011;44020;50.890;15.796;2022-12-29T10:47:57;6.20;;;2.20;;
58222;SDS011;44020;50.890;15.796;2022-12-29T10:50:27;4.00;;;1.80;;
58222;SDS011;44020;50.890;15.796;2022-12-29T10:52:59;6.50;;;2.80;;
58222;SDS011;44020;50.890;15.796;2022-12-29T10:55:32;14.70;;;1.80;;
58222;SDS011;44020;50.890;15.796;2022-12-29T10:58:06;5.20;;;1.80;;
58222;SDS011;44020;50.890;15.796;2022-12-29T11:00:39;2.80;;;1.20;;
58222;SDS011;44020;50.890;15.796;2022-12-29T11:06:00;4.20;;;2.00;;
58222;SDS011;44020;50.890;15.796;2022-12-29T11:08:34;2.90;;;1.70;;
58222;SDS011;44020;50.890;15.796;2022-12-29T11:11:08;9.60;;;4.60;;
58222;SDS011;44020;50.890;15.796;2022-12-29T11:13:49;8.10;;;3.40;;
58222;SDS011;44020;50.890;15.796;2022-12-29T11:16:36;3.10;;;2.30;;
58222;SDS011;44020;50.890;15.796;2022-12-29T11:19:03;3.00;;;1.80;;
58222;SDS011;44020;50.890;15.796;2022-12-29T11:21:35;5.70;;;2.50;;
58222;SDS011;44020;50.890;15.796;2022-12-29T11:24:28;3.30;;;2.10;;
58222;SDS011;44020;50.890;15.796;2022-12-29T11:27:13;5.00;;;2.20;;
58222;SDS011;44020;50.890;15.796;2022-12-29T11:29:44;4.20;;;2.80;;
58222;SDS011;44020;50.890;15.796;2022-12-29T11:32:19;3.50;;;1.30;;
58222;SDS011;44020;50.890;15.796;2022-12-29T11:34:49;5.70;;;2.80;;
58222;SDS011;44020;50.890;15.796;2022-12-29T11:37:18;4.10;;;2.20;;
58222;SDS011;44020;50.890;15.796;2022-12-29T11:39:57;3.00;;;1.70;;
58222;SDS011;44020;50.890;15.796;2022-12-29T11:44:57;4.20;;;3.50;;
58222;SDS011;44020;50.890;15.796;2022-12-29T11:47:33;7.80;;;5.70;;
58222;SDS011;44020;50.890;15.796;2022-12-29T11:50:02;6.10;;;3.80;;
58222;SDS011;44020;50.890;15.796;2022-12-29T11:52:32;3.80;;;1.90;;
58222;SDS011;44020;50.890;15.796;2022-12-29T11:55:04;3.70;;;2.10;;
58222;SDS011;44020;50.890;15.796;2022-12-29T11:57:34;5.90;;;2.40;;
58222;SDS011;44020;50.890;15.796;2022-12-29T12:00:09;5.50;;;2.60;;
58222;SDS011;44020;50.890;15.796;2022-12-29T12:05:16;11.70;;;6.20;;
58222;SDS011;44020;50.890;15.796;2022-12-29T12:08:11;20.70;;;11.90;;
58222;SDS011;44020;50.890;15.796;2022-12-29T12:10:54;8.90;;;4.90;;
58222;SDS011;44020;50.890;15.796;2022-12-29T12:16:53;17.00;;;7.30;;
58222;SDS011;44020;50.890;15.796;2022-12-29T12:25:08;7.30;;;3.70;;
58222;SDS011;44020;50.890;15.796;2022-12-29T12:27:44;7.80;;;6.40;;
58222;SDS011;44020;50.890;15.796;2022-12-29T12:30:20;5.30;;;3.20;;
58222;SDS011;44020;50.890;15.796;2022-12-29T12:32:55;2.30;;;1.60;;
58222;SDS011;44020;50.890;15.796;2022-12-29T12:40:52;2.50;;;1.20;;
58222;SDS011;44020;50.890;15.796;2022-12-29T13:01:10;3.10;;;1.70;;
58222;SDS011;44020;50.890;15.796;2022-12-29T13:06:26;5.60;;;2.00;;
58222;SDS011;44020;50.890;15.796;2022-12-29T13:09:29;3.00;;;1.50;;
58222;SDS011;44020;50.890;15.796;2022-12-29T13:14:57;5.60;;;2.20;;
58222;SDS011;44020;50.890;15.796;2022-12-29T13:17:49;8.90;;;3.10;;
58222;SDS011;44020;50.890;15.796;2022-12-29T13:20:41;6.60;;;3.00;;
58222;SDS011;44020;50.890;15.796;2022-12-29T13:23:20;8.80;;;3.90;;
58222;SDS011;44020;50.890;15.796;2022-12-29T13:28:47;6.20;;;3.30;;
58222;SDS011;44020;50.890;15.796;2022-12-29T13:31:17;4.00;;;2.00;;
58222;SDS011;44020;50.890;15.796;2022-12-29T13:36:56;4.70;;;2.20;;
58222;SDS011;44020;50.890;15.796;2022-12-29T13:39:43;7.50;;;2.10;;
58222;SDS011;44020;50.890;15.796;2022-12-29T13:42:19;3.50;;;1.80;;
58222;SDS011;44020;50.890;15.796;2022-12-29T13:44:50;3.40;;;1.80;;
58222;SDS011;44020;50.890;15.796;2022-12-29T13:47:28;2.90;;;1.50;;
58222;SDS011;44020;50.890;15.796;2022-12-29T13:50:05;4.70;;;2.00;;
58222;SDS011;44020;50.890;15.796;2022-12-29T13:52:45;4.00;;;2.20;;
58222;SDS011;44020;50.890;15.796;2022-12-29T14:06:27;5.60;;;2.40;;
58222;SDS011;44020;50.890;15.796;2022-12-29T14:09:03;5.30;;;2.60;;
58222;SDS011;44020;50.890;15.796;2022-12-29T14:11:36;4.80;;;2.40;;
58222;SDS011;44020;50.890;15.796;2022-12-29T14:14:12;8.10;;;3.00;;
58222;SDS011;44020;50.890;15.796;2022-12-29T14:17:08;4.00;;;2.00;;
58222;SDS011;44020;50.890;15.796;2022-12-29T14:19:38;6.60;;;2.80;;
58222;SDS011;44020;50.890;15.796;2022-12-29T14:22:11;9.60;;;3.90;;
58222;SDS011;44020;50.890;15.796;2022-12-29T14:24:50;10.00;;;3.80;;
58222;SDS011;44020;50.890;15.796;2022-12-29T14:29:50;12.00;;;4.80;;
58222;SDS011;44020;50.890;15.796;2022-12-29T14:34:52;8.00;;;4.60;;
58222;SDS011;44020;50.890;15.796;2022-12-29T14:42:47;6.00;;;2.80;;
58222;SDS011;44020;50.890;15.796;2022-12-29T14:47:44;4.90;;;2.30;;
58222;SDS011;44020;50.890;15.796;2022-12-29T14:52:53;6.60;;;3.60;;
58222;SDS011;44020;50.890;15.796;2022-12-29T14:58:26;6.30;;;3.30;;
58222;SDS011;44020;50.890;15.796;2022-12-29T15:01:20;4.90;;;2.70;;
58222;SDS011;44020;50.890;15.796;2022-12-29T15:06:24;12.20;;;6.40;;
58222;SDS011;44020;50.890;15.796;2022-12-29T15:12:11;13.60;;;6.40;;
58222;SDS011;44020;50.890;15.796;2022-12-29T15:15:17;8.70;;;5.30;;
58222;SDS011;44020;50.890;15.796;2022-12-29T15:17:47;7.00;;;4.10;;
58222;SDS011;44020;50.890;15.796;2022-12-29T15:20:29;6.30;;;3.20;;
58222;SDS011;44020;50.890;15.796;2022-12-29T15:23:00;6.70;;;3.60;;
58222;SDS011;44020;50.890;15.796;2022-12-29T15:25:35;8.10;;;3.80;;
58222;SDS011;44020;50.890;15.796;2022-12-29T15:28:04;15.20;;;7.20;;
58222;SDS011;44020;50.890;15.796;2022-12-29T15:30:33;12.60;;;8.00;;
58222;SDS011;44020;50.890;15.796;2022-12-29T15:33:02;10.30;;;6.10;;
58222;SDS011;44020;50.890;15.796;2022-12-29T15:35:43;7.80;;;3.40;;
58222;SDS011;44020;50.890;15.796;2022-12-29T15:40:52;8.70;;;3.70;;
58222;SDS011;44020;50.890;15.796;2022-12-29T15:46:19;11.50;;;6.20;;
58222;SDS011;44020;50.890;15.796;2022-12-29T15:48:46;7.90;;;4.00;;
58222;SDS011;44020;50.890;15.796;2022-12-29T15:51:23;16.10;;;8.30;;
58222;SDS011;44020;50.890;15.796;2022-12-29T15:53:58;11.70;;;4.80;;
58222;SDS011;44020;50.890;15.796;2022-12-29T15:56:28;17.20;;;9.20;;
58222;SDS011;44020;50.890;15.796;2022-12-29T15:58:58;14.90;;;5.40;;
58222;SDS011;44020;50.890;15.796;2022-12-29T16:01:28;5.80;;;2.90;;
58222;SDS011;44020;50.890;15.796;2022-12-29T16:03:59;7.50;;;4.00;;
58222;SDS011;44020;50.890;15.796;2022-12-29T16:06:32;8.10;;;3.70;;
58222;SDS011;44020;50.890;15.796;2022-12-29T16:11:34;8.40;;;4.10;;
58222;SDS011;44020;50.890;15.796;2022-12-29T16:14:09;9.90;;;6.30;;
58222;SDS011;44020;50.890;15.796;2022-12-29T16:16:43;8.40;;;5.00;;
58222;SDS011;44020;50.890;15.796;2022-12-29T16:19:48;8.00;;;4.80;;
58222;SDS011;44020;50.890;15.796;2022-12-29T16:22:11;10.40;;;6.40;;
58222;SDS011;44020;50.890;15.796;2022-12-29T16:24:44;6.90;;;4.30;;
58222;SDS011;44020;50.890;15.796;2022-12-29T16:29:49;8.40;;;4.60;;
58222;SDS011;44020;50.890;15.796;2022-12-29T16:32:25;7.60;;;4.10;;
58222;SDS011;44020;50.890;15.796;2022-12-29T16:38:15;11.90;;;5.70;;
58222;SDS011;44020;50.890;15.796;2022-12-29T16:40:53;9.70;;;6.30;;
58222;SDS011;44020;50.890;15.796;2022-12-29T16:46:19;9.00;;;5.00;;
58222;SDS011;44020;50.890;15.796;2022-12-29T16:48:54;7.90;;;3.80;;
58222;SDS011;44020;50.890;15.796;2022-12-29T16:51:28;5.80;;;3.90;;
58222;SDS011;44020;50.890;15.796;2022-12-29T16:54:01;9.20;;;5.50;;
58222;SDS011;44020;50.890;15.796;2022-12-29T16:56:32;10.30;;;5.30;;
58222;SDS011;44020;50.890;15.796;2022-12-29T16:59:07;10.00;;;5.70;;
58222;SDS011;44020;50.890;15.796;2022-12-29T17:01:45;13.60;;;7.20;;
58222;SDS011;44020;50.890;15.796;2022-12-29T17:04:13;13.90;;;7.50;;
58222;SDS011;44020;50.890;15.796;2022-12-29T17:06:41;6.70;;;4.00;;
58222;SDS011;44020;50.890;15.796;2022-12-29T17:09:22;9.10;;;5.00;;
58222;SDS011;44020;50.890;15.796;2022-12-29T17:11:52;11.10;;;5.50;;
58222;SDS011;44020;50.890;15.796;2022-12-29T17:14:33;13.60;;;7.70;;
58222;SDS011;44020;50.890;15.796;2022-12-29T17:17:20;9.70;;;4.90;;
58222;SDS011;44020;50.890;15.796;2022-12-29T17:20:03;9.00;;;5.30;;
58222;SDS011;44020;50.890;15.796;2022-12-29T17:22:41;9.00;;;3.90;;
58222;SDS011;44020;50.890;15.796;2022-12-29T17:25:19;8.10;;;3.90;;
58222;SDS011;44020;50.890;15.796;2022-12-29T17:27:51;6.80;;;3.90;;
58222;SDS011;44020;50.890;15.796;2022-12-29T17:30:23;8.50;;;4.80;;
58222;SDS011;44020;50.890;15.796;2022-12-29T17:32:52;12.40;;;7.30;;
58222;SDS011;44020;50.890;15.796;2022-12-29T17:35:24;9.30;;;5.20;;
58222;SDS011;44020;50.890;15.796;2022-12-29T17:37:51;8.80;;;4.40;;
58222;SDS011;44020;50.890;15.796;2022-12-29T17:40:20;10.90;;;4.80;;
58222;SDS011;44020;50.890;15.796;2022-12-29T17:42:54;6.60;;;4.00;;
58222;SDS011;44020;50.890;15.796;2022-12-29T17:47:52;14.10;;;6.00;;
58222;SDS011;44020;50.890;15.796;2022-12-29T17:50:20;10.00;;;5.50;;
58222;SDS011;44020;50.890;15.796;2022-12-29T17:52:55;12.40;;;5.90;;